sensor_id;sensor_type;location;lat;lon;timestamp;temperature;humidity
2663;DHT22;49701;48.072;7.800;2022-10-30T00:00:33;13.30;99.90
2663;DHT22;49701;48.072;7.800;2022-10-30T00:02:59;13.30;99.90
2663;DHT22;49701;48.072;7.800;2022-10-30T00:05:24;13.30;99.90
2663;DHT22;49701;48.072;7.800;2022-10-30T00:07:50;13.30;99.90
2663;DHT22;49701;48.072;7.800;2022-10-30T00:10:15;13.20;99.90
2663;DHT22;49701;48.072;7.800;2022-10-30T00:12:41;13.20;99.90
2663;DHT22;49701;48.072;7.800;2022-10-30T00:15:07;13.20;99.90
2663;DHT22;49701;48.072;7.800;2022-10-30T00:17:32;13.20;99.90
2663;DHT22;49701;48.072;7.800;2022-10-30T00:19:58;13.20;99.90
2663;DHT22;49701;48.072;7.800;2022-10-30T00:22:24;13.20;99.90
2663;DHT22;49701;48.072;7.800;2022-10-30T00:24:49;13.20;99.90
2663;DHT22;49701;48.072;7.800;2022-10-30T00:27:15;13.10;99.90
2663;DHT22;49701;48.072;7.800;2022-10-30T00:29:40;13.10;99.90
2663;DHT22;49701;48.072;7.800;2022-10-30T00:32:06;13.20;99.90
2663;DHT22;49701;48.072;7.800;2022-10-30T00:34:32;13.10;99.90
2663;DHT22;49701;48.072;7.800;2022-10-30T00:36:57;13.10;99.90
2663;DHT22;49701;48.072;7.800;2022-10-30T00:39:23;13.10;99.90
2663;DHT22;49701;48.072;7.800;2022-10-30T00:41:48;13.00;99.90
2663;DHT22;49701;48.072;7.800;2022-10-30T00:44:35;13.00;99.90
2663;DHT22;49701;48.072;7.800;2022-10-30T00:47:00;13.00;99.90
2663;DHT22;49701;48.072;7.800;2022-10-30T00:49:33;13.00;99.90
2663;DHT22;49701;48.072;7.800;2022-10-30T00:51:59;12.90;99.90
2663;DHT22;49701;48.072;7.800;2022-10-30T00:54:27;12.90;99.90
2663;DHT22;49701;48.072;7.800;2022-10-30T00:56:53;12.90;99.90
2663;DHT22;49701;48.072;7.800;2022-10-30T00:59:21;12.90;99.90
2663;DHT22;49701;48.072;7.800;2022-10-30T01:01:47;12.80;99.90
2663;DHT22;49701;48.072;7.800;2022-10-30T01:04:12;12.80;99.90
2663;DHT22;49701;48.072;7.800;2022-10-30T01:06:39;12.80;99.90
2663;DHT22;49701;48.072;7.800;2022-10-30T01:09:06;12.80;99.90
2663;DHT22;49701;48.072;7.800;2022-10-30T01:11:31;12.70;99.90
2663;DHT22;49701;48.072;7.800;2022-10-30T01:13:57;12.70;99.90
2663;DHT22;49701;48.072;7.800;2022-10-30T01:29:15;12.60;99.90
2663;DHT22;49701;48.072;7.800;2022-10-30T01:34:27;12.50;99.90
2663;DHT22;49701;48.072;7.800;2022-10-30T01:37:05;12.50;99.90
2663;DHT22;49701;48.072;7.800;2022-10-30T01:39:32;12.50;99.90
2663;DHT22;49701;48.072;7.800;2022-10-30T01:41:59;12.50;99.90
2663;DHT22;49701;48.072;7.800;2022-10-30T01:44:28;12.40;99.90
2663;DHT22;49701;48.072;7.800;2022-10-30T01:55:10;12.30;99.90
2663;DHT22;49701;48.072;7.800;2022-10-30T02:00:08;12.30;99.90
2663;DHT22;49701;48.072;7.800;2022-10-30T02:02:34;12.30;99.90
2663;DHT22;49701;48.072;7.800;2022-10-30T02:05:00;12.20;99.90
2663;DHT22;49701;48.072;7.800;2022-10-30T02:07:25;12.20;99.90
2663;DHT22;49701;48.072;7.800;2022-10-30T02:09:51;12.10;99.90
2663;DHT22;49701;48.072;7.800;2022-10-30T02:12:18;12.10;99.90
2663;DHT22;49701;48.072;7.800;2022-10-30T02:14:44;12.00;99.90
2663;DHT22;49701;48.072;7.800;2022-10-30T02:17:11;12.10;99.90
2663;DHT22;49701;48.072;7.800;2022-10-30T02:19:37;12.00;99.90
2663;DHT22;49701;48.072;7.800;2022-10-30T02:22:03;12.00;99.90
2663;DHT22;49701;48.072;7.800;2022-10-30T02:24:28;12.00;99.90
2663;DHT22;49701;48.072;7.800;2022-10-30T02:26:54;12.00;99.90
2663;DHT22;49701;48.072;7.800;2022-10-30T02:29:20;11.90;99.90
2663;DHT22;49701;48.072;7.800;2022-10-30T02:31:46;11.90;99.90
2663;DHT22;49701;48.072;7.800;2022-10-30T02:34:12;12.00;99.90
2663;DHT22;49701;48.072;7.800;2022-10-30T02:36:37;11.90;99.90
2663;DHT22;49701;48.072;7.800;2022-10-30T02:39:03;11.90;99.90
2663;DHT22;49701;48.072;7.800;2022-10-30T02:41:28;11.90;99.90
2663;DHT22;49701;48.072;7.800;2022-10-30T02:43:54;11.80;99.90
2663;DHT22;49701;48.072;7.800;2022-10-30T02:46:19;11.80;99.90
2663;DHT22;49701;48.072;7.800;2022-10-30T02:48:45;11.80;99.90
2663;DHT22;49701;48.072;7.800;2022-10-30T02:51:10;11.70;99.90
2663;DHT22;49701;48.072;7.800;2022-10-30T02:53:36;11.70;99.90
2663;DHT22;49701;48.072;7.800;2022-10-30T02:56:06;11.70;99.90
2663;DHT22;49701;48.072;7.800;2022-10-30T02:58:32;11.70;99.90
2663;DHT22;49701;48.072;7.800;2022-10-30T03:01:03;11.60;99.90
2663;DHT22;49701;48.072;7.800;2022-10-30T03:03:29;11.70;99.90
2663;DHT22;49701;48.072;7.800;2022-10-30T03:05:54;11.60;99.90
2663;DHT22;49701;48.072;7.800;2022-10-30T03:08:20;11.60;99.90
2663;DHT22;49701;48.072;7.800;2022-10-30T03:10:45;11.60;99.90
2663;DHT22;49701;48.072;7.800;2022-10-30T03:13:11;11.60;99.90
2663;DHT22;49701;48.072;7.800;2022-10-30T03:15:36;11.60;99.90
2663;DHT22;49701;48.072;7.800;2022-10-30T03:18:01;11.60;99.90
2663;DHT22;49701;48.072;7.800;2022-10-30T03:20:27;11.60;99.90
2663;DHT22;49701;48.072;7.800;2022-10-30T03:22:52;11.50;99.90
2663;DHT22;49701;48.072;7.800;2022-10-30T03:25:18;11.50;99.90
2663;DHT22;49701;48.072;7.800;2022-10-30T03:27:47;11.50;99.90
2663;DHT22;49701;48.072;7.800;2022-10-30T03:30:13;11.40;99.90
2663;DHT22;49701;48.072;7.800;2022-10-30T03:32:39;11.40;99.90
2663;DHT22;49701;48.072;7.800;2022-10-30T03:35:04;11.40;99.90
2663;DHT22;49701;48.072;7.800;2022-10-30T03:37:30;11.40;99.90
2663;DHT22;49701;48.072;7.800;2022-10-30T03:39:55;11.40;99.90
2663;DHT22;49701;48.072;7.800;2022-10-30T03:42:21;11.40;99.90
2663;DHT22;49701;48.072;7.800;2022-10-30T03:44:46;11.40;99.90
2663;DHT22;49701;48.072;7.800;2022-10-30T03:47:12;11.30;99.90
2663;DHT22;49701;48.072;7.800;2022-10-30T03:49:37;11.30;99.90
2663;DHT22;49701;48.072;7.800;2022-10-30T03:52:02;11.20;99.90
2663;DHT22;49701;48.072;7.800;2022-10-30T03:54:28;11.20;99.90
2663;DHT22;49701;48.072;7.800;2022-10-30T03:56:53;11.20;99.90
2663;DHT22;49701;48.072;7.800;2022-10-30T03:59:19;11.20;99.90
2663;DHT22;49701;48.072;7.800;2022-10-30T04:01:44;11.20;99.90
2663;DHT22;49701;48.072;7.800;2022-10-30T04:04:10;11.20;99.90
2663;DHT22;49701;48.072;7.800;2022-10-30T04:06:35;11.10;99.90
2663;DHT22;49701;48.072;7.800;2022-10-30T04:09:01;11.10;99.90
2663;DHT22;49701;48.072;7.800;2022-10-30T04:11:26;11.10;99.90
2663;DHT22;49701;48.072;7.800;2022-10-30T04:13:52;11.00;99.90
2663;DHT22;49701;48.072;7.800;2022-10-30T04:16:17;11.00;99.90
2663;DHT22;49701;48.072;7.800;2022-10-30T04:18:43;11.00;99.90
2663;DHT22;49701;48.072;7.800;2022-10-30T04:21:08;10.90;99.90
2663;DHT22;49701;48.072;7.800;2022-10-30T04:23:34;10.90;99.90
2663;DHT22;49701;48.072;7.800;2022-10-30T04:25:59;10.90;99.90
2663;DHT22;49701;48.072;7.800;2022-10-30T04:28:25;10.90;99.90
2663;DHT22;49701;48.072;7.800;2022-10-30T04:30:51;10.90;99.90
2663;DHT22;49701;48.072;7.800;2022-10-30T04:33:16;10.90;99.90
2663;DHT22;49701;48.072;7.800;2022-10-30T04:35:42;10.90;99.90
2663;DHT22;49701;48.072;7.800;2022-10-30T04:38:09;10.80;99.90
2663;DHT22;49701;48.072;7.800;2022-10-30T04:40:36;10.80;99.90
2663;DHT22;49701;48.072;7.800;2022-10-30T04:43:02;10.80;99.90
2663;DHT22;49701;48.072;7.800;2022-10-30T04:45:28;10.80;99.90
2663;DHT22;49701;48.072;7.800;2022-10-30T04:47:59;10.80;99.90
2663;DHT22;49701;48.072;7.800;2022-10-30T04:50:24;10.80;99.90
2663;DHT22;49701;48.072;7.800;2022-10-30T04:52:57;10.80;99.90
2663;DHT22;49701;48.072;7.800;2022-10-30T04:55:22;10.80;99.90
2663;DHT22;49701;48.072;7.800;2022-10-30T04:57:48;10.80;99.90
2663;DHT22;49701;48.072;7.800;2022-10-30T05:00:13;10.80;99.90
2663;DHT22;49701;48.072;7.800;2022-10-30T05:02:39;10.70;99.90
2663;DHT22;49701;48.072;7.800;2022-10-30T05:05:04;10.70;99.90
2663;DHT22;49701;48.072;7.800;2022-10-30T05:07:30;10.70;99.90
2663;DHT22;49701;48.072;7.800;2022-10-30T05:09:55;10.70;99.90
2663;DHT22;49701;48.072;7.800;2022-10-30T05:12:21;10.70;99.90
2663;DHT22;49701;48.072;7.800;2022-10-30T05:14:46;10.60;99.90
2663;DHT22;49701;48.072;7.800;2022-10-30T05:17:12;10.60;99.90
2663;DHT22;49701;48.072;7.800;2022-10-30T05:19:37;10.60;99.90
2663;DHT22;49701;48.072;7.800;2022-10-30T05:22:03;10.60;99.90
2663;DHT22;49701;48.072;7.800;2022-10-30T05:24:28;10.60;99.90
2663;DHT22;49701;48.072;7.800;2022-10-30T05:26:54;10.60;99.90
2663;DHT22;49701;48.072;7.800;2022-10-30T05:29:19;10.60;99.90
2663;DHT22;49701;48.072;7.800;2022-10-30T05:31:45;10.60;99.90
2663;DHT22;49701;48.072;7.800;2022-10-30T05:34:10;10.60;99.90
2663;DHT22;49701;48.072;7.800;2022-10-30T05:36:36;10.70;99.90
2663;DHT22;49701;48.072;7.800;2022-10-30T05:39:01;10.60;99.90
2663;DHT22;49701;48.072;7.800;2022-10-30T05:41:27;10.60;99.90
2663;DHT22;49701;48.072;7.800;2022-10-30T05:43:53;10.60;99.90
2663;DHT22;49701;48.072;7.800;2022-10-30T05:46:18;10.60;99.90
2663;DHT22;49701;48.072;7.800;2022-10-30T05:48:44;10.60;99.90
2663;DHT22;49701;48.072;7.800;2022-10-30T05:51:09;10.60;99.90
2663;DHT22;49701;48.072;7.800;2022-10-30T05:53:35;10.60;99.90
2663;DHT22;49701;48.072;7.800;2022-10-30T05:56:00;10.60;99.90
2663;DHT22;49701;48.072;7.800;2022-10-30T05:58:26;10.60;99.90
2663;DHT22;49701;48.072;7.800;2022-10-30T06:00:51;10.50;99.90
2663;DHT22;49701;48.072;7.800;2022-10-30T06:03:17;10.50;99.90
2663;DHT22;49701;48.072;7.800;2022-10-30T06:05:43;10.50;99.90
2663;DHT22;49701;48.072;7.800;2022-10-30T06:08:09;10.50;99.90
2663;DHT22;49701;48.072;7.800;2022-10-30T06:10:34;10.40;99.90
2663;DHT22;49701;48.072;7.800;2022-10-30T06:13:02;10.40;99.90
2663;DHT22;49701;48.072;7.800;2022-10-30T06:15:28;10.40;99.90
2663;DHT22;49701;48.072;7.800;2022-10-30T06:17:53;10.30;99.90
2663;DHT22;49701;48.072;7.800;2022-10-30T06:20:20;10.30;99.90
2663;DHT22;49701;48.072;7.800;2022-10-30T06:22:52;10.30;99.90
2663;DHT22;49701;48.072;7.800;2022-10-30T06:25:17;10.30;99.90
2663;DHT22;49701;48.072;7.800;2022-10-30T06:27:43;10.30;99.90
2663;DHT22;49701;48.072;7.800;2022-10-30T06:30:08;10.30;99.90
2663;DHT22;49701;48.072;7.800;2022-10-30T06:32:34;10.30;99.90
2663;DHT22;49701;48.072;7.800;2022-10-30T06:34:59;10.30;99.90
2663;DHT22;49701;48.072;7.800;2022-10-30T06:37:25;10.30;99.90
2663;DHT22;49701;48.072;7.800;2022-10-30T06:39:50;10.30;99.90
2663;DHT22;49701;48.072;7.800;2022-10-30T06:42:16;10.40;99.90
2663;DHT22;49701;48.072;7.800;2022-10-30T06:44:41;10.40;99.90
2663;DHT22;49701;48.072;7.800;2022-10-30T06:47:07;10.40;99.90
2663;DHT22;49701;48.072;7.800;2022-10-30T06:49:32;10.40;99.90
2663;DHT22;49701;48.072;7.800;2022-10-30T06:51:58;10.50;99.90
2663;DHT22;49701;48.072;7.800;2022-10-30T06:54:23;10.40;99.90
2663;DHT22;49701;48.072;7.800;2022-10-30T06:56:49;10.50;99.90
2663;DHT22;49701;48.072;7.800;2022-10-30T06:59:15;10.50;99.90
2663;DHT22;49701;48.072;7.800;2022-10-30T07:01:40;10.60;99.90
2663;DHT22;49701;48.072;7.800;2022-10-30T07:04:06;10.60;99.90
2663;DHT22;49701;48.072;7.800;2022-10-30T07:06:31;10.60;99.90
2663;DHT22;49701;48.072;7.800;2022-10-30T07:08:57;10.70;99.90
2663;DHT22;49701;48.072;7.800;2022-10-30T07:11:22;10.70;99.90
2663;DHT22;49701;48.072;7.800;2022-10-30T07:13:48;10.80;99.90
2663;DHT22;49701;48.072;7.800;2022-10-30T07:16:13;10.80;99.90
2663;DHT22;49701;48.072;7.800;2022-10-30T07:18:39;10.90;99.90
2663;DHT22;49701;48.072;7.800;2022-10-30T07:21:04;11.00;99.90
2663;DHT22;49701;48.072;7.800;2022-10-30T07:23:30;11.00;99.90
2663;DHT22;49701;48.072;7.800;2022-10-30T07:25:55;11.10;99.90
2663;DHT22;49701;48.072;7.800;2022-10-30T07:28:21;11.10;99.90
2663;DHT22;49701;48.072;7.800;2022-10-30T07:30:46;11.20;99.90
2663;DHT22;49701;48.072;7.800;2022-10-30T07:33:12;11.30;99.90
2663;DHT22;49701;48.072;7.800;2022-10-30T07:35:37;11.30;99.90
2663;DHT22;49701;48.072;7.800;2022-10-30T07:38:09;11.50;99.90
2663;DHT22;49701;48.072;7.800;2022-10-30T07:40:34;11.60;99.90
2663;DHT22;49701;48.072;7.800;2022-10-30T07:43:00;11.80;99.90
2663;DHT22;49701;48.072;7.800;2022-10-30T07:45:26;12.00;99.90
2663;DHT22;49701;48.072;7.800;2022-10-30T07:47:52;12.20;99.90
2663;DHT22;49701;48.072;7.800;2022-10-30T07:50:18;12.40;99.90
2663;DHT22;49701;48.072;7.800;2022-10-30T07:52:43;12.60;99.90
2663;DHT22;49701;48.072;7.800;2022-10-30T07:55:09;12.90;99.90
2663;DHT22;49701;48.072;7.800;2022-10-30T07:57:35;13.20;99.90
2663;DHT22;49701;48.072;7.800;2022-10-30T08:00:05;13.50;99.90
2663;DHT22;49701;48.072;7.800;2022-10-30T08:02:31;13.80;99.90
2663;DHT22;49701;48.072;7.800;2022-10-30T08:04:57;14.10;99.90
2663;DHT22;49701;48.072;7.800;2022-10-30T08:07:22;14.40;99.90
2663;DHT22;49701;48.072;7.800;2022-10-30T08:09:47;14.70;99.90
2663;DHT22;49701;48.072;7.800;2022-10-30T08:12:14;15.10;99.90
2663;DHT22;49701;48.072;7.800;2022-10-30T08:14:39;15.40;99.90
2663;DHT22;49701;48.072;7.800;2022-10-30T08:17:04;15.70;99.90
2663;DHT22;49701;48.072;7.800;2022-10-30T08:19:32;16.00;99.90
2663;DHT22;49701;48.072;7.800;2022-10-30T08:21:57;16.40;99.90
2663;DHT22;49701;48.072;7.800;2022-10-30T08:24:24;16.70;99.90
2663;DHT22;49701;48.072;7.800;2022-10-30T08:26:52;17.00;99.90
2663;DHT22;49701;48.072;7.800;2022-10-30T08:29:18;17.40;99.90
2663;DHT22;49701;48.072;7.800;2022-10-30T08:31:43;17.70;99.90
2663;DHT22;49701;48.072;7.800;2022-10-30T08:34:09;18.00;99.90
2663;DHT22;49701;48.072;7.800;2022-10-30T08:36:34;18.40;99.90
2663;DHT22;49701;48.072;7.800;2022-10-30T08:39:00;18.60;99.90
2663;DHT22;49701;48.072;7.800;2022-10-30T08:41:28;18.80;99.90
2663;DHT22;49701;48.072;7.800;2022-10-30T08:43:53;19.00;99.90
2663;DHT22;49701;48.072;7.800;2022-10-30T08:46:19;19.10;99.90
2663;DHT22;49701;48.072;7.800;2022-10-30T08:48:44;19.20;99.90
2663;DHT22;49701;48.072;7.800;2022-10-30T08:51:10;19.30;99.90
2663;DHT22;49701;48.072;7.800;2022-10-30T08:53:35;19.50;99.90
2663;DHT22;49701;48.072;7.800;2022-10-30T08:56:01;19.60;99.90
2663;DHT22;49701;48.072;7.800;2022-10-30T08:58:26;19.60;99.90
2663;DHT22;49701;48.072;7.800;2022-10-30T09:00:52;19.80;99.90
2663;DHT22;49701;48.072;7.800;2022-10-30T09:03:17;20.00;99.90
2663;DHT22;49701;48.072;7.800;2022-10-30T09:05:43;20.20;99.90
2663;DHT22;49701;48.072;7.800;2022-10-30T09:08:08;20.30;99.90
2663;DHT22;49701;48.072;7.800;2022-10-30T09:10:34;20.30;99.90
2663;DHT22;49701;48.072;7.800;2022-10-30T09:12:59;20.40;99.90
2663;DHT22;49701;48.072;7.800;2022-10-30T09:15:26;20.50;99.90
2663;DHT22;49701;48.072;7.800;2022-10-30T09:18:02;20.60;99.90
2663;DHT22;49701;48.072;7.800;2022-10-30T09:20:28;20.80;99.90
2663;DHT22;49701;48.072;7.800;2022-10-30T09:22:53;21.00;99.90
2663;DHT22;49701;48.072;7.800;2022-10-30T09:25:19;21.20;99.90
2663;DHT22;49701;48.072;7.800;2022-10-30T09:27:44;21.30;99.90
2663;DHT22;49701;48.072;7.800;2022-10-30T09:30:10;21.40;99.90
2663;DHT22;49701;48.072;7.800;2022-10-30T09:32:36;21.60;99.90
2663;DHT22;49701;48.072;7.800;2022-10-30T09:35:01;21.70;99.90
2663;DHT22;49701;48.072;7.800;2022-10-30T09:37:27;21.80;99.90
2663;DHT22;49701;48.072;7.800;2022-10-30T09:39:52;21.70;99.90
2663;DHT22;49701;48.072;7.800;2022-10-30T09:55:23;22.10;99.90
2663;DHT22;49701;48.072;7.800;2022-10-30T10:00:37;22.30;99.90
2663;DHT22;49701;48.072;7.800;2022-10-30T10:05:50;22.80;99.90
2663;DHT22;49701;48.072;7.800;2022-10-30T10:08:37;23.10;99.90
2663;DHT22;49701;48.072;7.800;2022-10-30T10:11:09;23.30;99.90
2663;DHT22;49701;48.072;7.800;2022-10-30T10:18:39;23.90;99.90
2663;DHT22;49701;48.072;7.800;2022-10-30T10:21:08;23.90;99.90
2663;DHT22;49701;48.072;7.800;2022-10-30T10:23:40;24.00;99.90
2663;DHT22;49701;48.072;7.800;2022-10-30T10:26:11;23.90;99.90
2663;DHT22;49701;48.072;7.800;2022-10-30T10:31:11;24.00;99.90
2663;DHT22;49701;48.072;7.800;2022-10-30T10:41:21;24.30;99.90
2663;DHT22;49701;48.072;7.800;2022-10-30T10:46:36;24.60;99.90
2663;DHT22;49701;48.072;7.800;2022-10-30T10:49:11;24.70;99.90
2663;DHT22;49701;48.072;7.800;2022-10-30T10:51:38;24.60;99.90
2663;DHT22;49701;48.072;7.800;2022-10-30T10:54:25;24.70;99.90
2663;DHT22;49701;48.072;7.800;2022-10-30T10:56:52;24.80;99.90
2663;DHT22;49701;48.072;7.800;2022-10-30T10:59:19;25.00;99.90
2663;DHT22;49701;48.072;7.800;2022-10-30T11:01:55;25.30;99.90
2663;DHT22;49701;48.072;7.800;2022-10-30T11:06:57;25.50;99.90
2663;DHT22;49701;48.072;7.800;2022-10-30T11:09:23;25.40;99.90
2663;DHT22;49701;48.072;7.800;2022-10-30T11:11:49;25.40;99.90
2663;DHT22;49701;48.072;7.800;2022-10-30T11:14:22;25.20;99.90
2663;DHT22;49701;48.072;7.800;2022-10-30T11:19:14;24.80;99.90
2663;DHT22;49701;48.072;7.800;2022-10-30T11:21:47;24.60;99.90
2663;DHT22;49701;48.072;7.800;2022-10-30T11:24:24;24.50;99.90
2663;DHT22;49701;48.072;7.800;2022-10-30T11:26:50;24.50;99.90
2663;DHT22;49701;48.072;7.800;2022-10-30T11:29:17;24.40;99.90
2663;DHT22;49701;48.072;7.800;2022-10-30T11:31:57;24.30;99.90
2663;DHT22;49701;48.072;7.800;2022-10-30T11:34:24;24.30;99.90
2663;DHT22;49701;48.072;7.800;2022-10-30T11:36:53;24.10;99.90
2663;DHT22;49701;48.072;7.800;2022-10-30T11:39:23;24.10;99.90
2663;DHT22;49701;48.072;7.800;2022-10-30T11:44:21;24.10;99.90
2663;DHT22;49701;48.072;7.800;2022-10-30T11:46:47;24.20;99.90
2663;DHT22;49701;48.072;7.800;2022-10-30T11:52:11;24.30;99.90
2663;DHT22;49701;48.072;7.800;2022-10-30T11:54:38;24.50;99.90
2663;DHT22;49701;48.072;7.800;2022-10-30T11:57:10;24.70;99.90
2663;DHT22;49701;48.072;7.800;2022-10-30T11:59:43;25.00;99.90
2663;DHT22;49701;48.072;7.800;2022-10-30T12:02:25;25.20;99.90
2663;DHT22;49701;48.072;7.800;2022-10-30T12:04:52;25.30;99.90
2663;DHT22;49701;48.072;7.800;2022-10-30T12:07:19;25.40;99.90
2663;DHT22;49701;48.072;7.800;2022-10-30T12:09:48;25.30;99.90
2663;DHT22;49701;48.072;7.800;2022-10-30T12:12:18;25.40;99.90
2663;DHT22;49701;48.072;7.800;2022-10-30T12:14:45;25.50;99.90
2663;DHT22;49701;48.072;7.800;2022-10-30T12:17:12;25.60;99.90
2663;DHT22;49701;48.072;7.800;2022-10-30T12:19:42;25.60;99.90
2663;DHT22;49701;48.072;7.800;2022-10-30T12:22:09;25.70;99.90
2663;DHT22;49701;48.072;7.800;2022-10-30T12:24:35;25.90;99.90
2663;DHT22;49701;48.072;7.800;2022-10-30T12:27:04;26.00;99.90
2663;DHT22;49701;48.072;7.800;2022-10-30T12:32:06;26.20;99.90
2663;DHT22;49701;48.072;7.800;2022-10-30T12:34:36;26.30;99.90
2663;DHT22;49701;48.072;7.800;2022-10-30T12:42:11;26.70;99.90
2663;DHT22;49701;48.072;7.800;2022-10-30T12:44:39;26.90;99.90
2663;DHT22;49701;48.072;7.800;2022-10-30T12:47:17;27.00;99.90
2663;DHT22;49701;48.072;7.800;2022-10-30T12:49:46;27.00;99.90
2663;DHT22;49701;48.072;7.800;2022-10-30T12:52:15;27.10;99.90
2663;DHT22;49701;48.072;7.800;2022-10-30T12:54:51;27.10;99.90
2663;DHT22;49701;48.072;7.800;2022-10-30T12:57:19;27.20;99.90
2663;DHT22;49701;48.072;7.800;2022-10-30T13:02:19;27.50;99.90
2663;DHT22;49701;48.072;7.800;2022-10-30T13:04:49;27.50;99.90
2663;DHT22;49701;48.072;7.800;2022-10-30T13:07:35;27.40;99.90
2663;DHT22;49701;48.072;7.800;2022-10-30T13:12:31;27.10;99.90
2663;DHT22;49701;48.072;7.800;2022-10-30T13:15:00;26.90;99.90
2663;DHT22;49701;48.072;7.800;2022-10-30T13:17:28;26.90;99.90
2663;DHT22;49701;48.072;7.800;2022-10-30T13:19:53;26.80;99.90
2663;DHT22;49701;48.072;7.800;2022-10-30T13:22:24;26.70;99.90
2663;DHT22;49701;48.072;7.800;2022-10-30T13:25:01;26.60;99.90
2663;DHT22;49701;48.072;7.800;2022-10-30T13:27:44;26.60;99.90
2663;DHT22;49701;48.072;7.800;2022-10-30T13:30:13;26.80;99.90
2663;DHT22;49701;48.072;7.800;2022-10-30T13:37:47;28.20;99.90
2663;DHT22;49701;48.072;7.800;2022-10-30T13:45:43;29.60;98.00
2663;DHT22;49701;48.072;7.800;2022-10-30T13:48:15;30.00;97.30
2663;DHT22;49701;48.072;7.800;2022-10-30T13:53:28;30.40;96.20
2663;DHT22;49701;48.072;7.800;2022-10-30T13:55:55;30.60;95.70
2663;DHT22;49701;48.072;7.800;2022-10-30T14:05:57;31.00;94.80
2663;DHT22;49701;48.072;7.800;2022-10-30T14:08:32;30.90;94.60
2663;DHT22;49701;48.072;7.800;2022-10-30T14:11:01;30.90;94.50
2663;DHT22;49701;48.072;7.800;2022-10-30T14:16:01;30.80;94.50
2663;DHT22;49701;48.072;7.800;2022-10-30T14:18:29;30.70;94.50
2663;DHT22;49701;48.072;7.800;2022-10-30T14:20:56;30.60;94.40
2663;DHT22;49701;48.072;7.800;2022-10-30T14:28:49;30.30;94.40
2663;DHT22;49701;48.072;7.800;2022-10-30T14:31:19;29.80;95.00
2663;DHT22;49701;48.072;7.800;2022-10-30T14:33:56;29.50;95.30
2663;DHT22;49701;48.072;7.800;2022-10-30T14:36:25;29.00;96.00
2663;DHT22;49701;48.072;7.800;2022-10-30T14:44:37;28.00;97.50
2663;DHT22;49701;48.072;7.800;2022-10-30T14:49:57;27.30;98.90
2663;DHT22;49701;48.072;7.800;2022-10-30T14:57:44;26.30;99.90
2663;DHT22;49701;48.072;7.800;2022-10-30T15:07:54;25.30;99.90
2663;DHT22;49701;48.072;7.800;2022-10-30T15:10:29;25.10;99.90
2663;DHT22;49701;48.072;7.800;2022-10-30T15:15:39;24.70;99.90
2663;DHT22;49701;48.072;7.800;2022-10-30T15:18:09;24.60;99.90
2663;DHT22;49701;48.072;7.800;2022-10-30T15:20:36;24.40;99.90
2663;DHT22;49701;48.072;7.800;2022-10-30T15:23:03;24.20;99.90
2663;DHT22;49701;48.072;7.800;2022-10-30T15:25:35;24.10;99.90
2663;DHT22;49701;48.072;7.800;2022-10-30T15:28:01;23.90;99.90
2663;DHT22;49701;48.072;7.800;2022-10-30T15:30:27;23.70;99.90
2663;DHT22;49701;48.072;7.800;2022-10-30T15:32:53;23.60;99.90
2663;DHT22;49701;48.072;7.800;2022-10-30T15:35:23;23.50;99.90
2663;DHT22;49701;48.072;7.800;2022-10-30T15:38:05;23.40;99.90
2663;DHT22;49701;48.072;7.800;2022-10-30T15:40:32;23.20;99.90
2663;DHT22;49701;48.072;7.800;2022-10-30T15:42:58;23.10;99.90
2663;DHT22;49701;48.072;7.800;2022-10-30T15:45:25;22.90;99.90
2663;DHT22;49701;48.072;7.800;2022-10-30T15:48:11;22.80;99.90
2663;DHT22;49701;48.072;7.800;2022-10-30T15:50:43;22.80;99.90
2663;DHT22;49701;48.072;7.800;2022-10-30T15:53:15;22.60;99.90
2663;DHT22;49701;48.072;7.800;2022-10-30T15:55:41;22.60;99.90
2663;DHT22;49701;48.072;7.800;2022-10-30T15:58:06;22.60;99.90
2663;DHT22;49701;48.072;7.800;2022-10-30T16:00:33;22.50;99.90
2663;DHT22;49701;48.072;7.800;2022-10-30T16:03:00;22.40;99.90
2663;DHT22;49701;48.072;7.800;2022-10-30T16:05:26;22.30;99.90
2663;DHT22;49701;48.072;7.800;2022-10-30T16:07:53;22.30;99.90
2663;DHT22;49701;48.072;7.800;2022-10-30T16:10:19;22.20;99.90
2663;DHT22;49701;48.072;7.800;2022-10-30T16:12:46;22.10;99.90
2663;DHT22;49701;48.072;7.800;2022-10-30T16:20:39;21.70;99.90
2663;DHT22;49701;48.072;7.800;2022-10-30T16:23:05;21.50;99.90
2663;DHT22;49701;48.072;7.800;2022-10-30T16:25:31;21.30;99.90
2663;DHT22;49701;48.072;7.800;2022-10-30T16:28:02;21.10;99.90
2663;DHT22;49701;48.072;7.800;2022-10-30T16:30:27;21.00;99.90
2663;DHT22;49701;48.072;7.800;2022-10-30T16:32:56;20.90;99.90
2663;DHT22;49701;48.072;7.800;2022-10-30T16:35:22;20.70;99.90
2663;DHT22;49701;48.072;7.800;2022-10-30T16:37:48;20.70;99.90
2663;DHT22;49701;48.072;7.800;2022-10-30T16:40:16;20.60;99.90
2663;DHT22;49701;48.072;7.800;2022-10-30T16:42:45;20.50;99.90
2663;DHT22;49701;48.072;7.800;2022-10-30T16:47:42;20.10;99.90
2663;DHT22;49701;48.072;7.800;2022-10-30T16:50:09;19.80;99.90
2663;DHT22;49701;48.072;7.800;2022-10-30T16:52:36;19.60;99.90
2663;DHT22;49701;48.072;7.800;2022-10-30T16:55:05;19.50;99.90
2663;DHT22;49701;48.072;7.800;2022-10-30T16:57:33;19.30;99.90
2663;DHT22;49701;48.072;7.800;2022-10-30T16:59:59;19.20;99.90
2663;DHT22;49701;48.072;7.800;2022-10-30T17:02:26;19.00;99.90
2663;DHT22;49701;48.072;7.800;2022-10-30T17:04:59;18.80;99.90
2663;DHT22;49701;48.072;7.800;2022-10-30T17:07:26;18.70;99.90
2663;DHT22;49701;48.072;7.800;2022-10-30T17:09:53;18.50;99.90
2663;DHT22;49701;48.072;7.800;2022-10-30T17:12:27;18.50;99.90
2663;DHT22;49701;48.072;7.800;2022-10-30T17:17:23;18.30;99.90
2663;DHT22;49701;48.072;7.800;2022-10-30T17:19:53;18.20;99.90
2663;DHT22;49701;48.072;7.800;2022-10-30T17:22:19;18.20;99.90
2663;DHT22;49701;48.072;7.800;2022-10-30T17:24:45;18.00;99.90
2663;DHT22;49701;48.072;7.800;2022-10-30T17:27:32;18.00;99.90
2663;DHT22;49701;48.072;7.800;2022-10-30T17:29:58;17.90;99.90
2663;DHT22;49701;48.072;7.800;2022-10-30T17:32:25;17.80;99.90
2663;DHT22;49701;48.072;7.800;2022-10-30T17:34:56;17.80;99.90
2663;DHT22;49701;48.072;7.800;2022-10-30T17:37:23;17.80;99.90
2663;DHT22;49701;48.072;7.800;2022-10-30T17:39:48;17.70;99.90
2663;DHT22;49701;48.072;7.800;2022-10-30T17:42:13;17.60;99.90
2663;DHT22;49701;48.072;7.800;2022-10-30T17:44:39;17.50;99.90
2663;DHT22;49701;48.072;7.800;2022-10-30T17:47:17;17.40;99.90
2663;DHT22;49701;48.072;7.800;2022-10-30T17:49:43;17.30;99.90
2663;DHT22;49701;48.072;7.800;2022-10-30T17:52:09;17.20;99.90
2663;DHT22;49701;48.072;7.800;2022-10-30T17:54:35;17.20;99.90
2663;DHT22;49701;48.072;7.800;2022-10-30T17:57:00;17.20;99.90
2663;DHT22;49701;48.072;7.800;2022-10-30T17:59:27;17.10;99.90
2663;DHT22;49701;48.072;7.800;2022-10-30T18:01:52;17.10;99.90
2663;DHT22;49701;48.072;7.800;2022-10-30T18:04:18;17.10;99.90
2663;DHT22;49701;48.072;7.800;2022-10-30T18:06:43;17.10;99.90
2663;DHT22;49701;48.072;7.800;2022-10-30T18:09:09;17.10;99.90
2663;DHT22;49701;48.072;7.800;2022-10-30T18:11:34;17.20;99.90
2663;DHT22;49701;48.072;7.800;2022-10-30T18:14:00;17.20;99.90